createdAt,value
2018-02-21T00:01:08.764Z,31.20
2018-02-21T00:03:36.258Z,28.67
2018-02-21T00:06:03.737Z,32.77
2018-02-21T00:08:31.212Z,30.50
2018-02-21T00:10:58.704Z,29.57
2018-02-21T00:13:26.175Z,25.90
2018-02-21T00:15:53.655Z,26.87
2018-02-21T00:18:21.218Z,27.27
2018-02-21T00:20:48.728Z,28.37
2018-02-21T00:23:16.194Z,30.97
2018-02-21T00:25:43.674Z,29.07
2018-02-21T00:28:11.149Z,30.47
2018-02-21T00:30:38.675Z,25.73
2018-02-21T00:33:06.140Z,28.13
2018-02-21T00:35:33.631Z,28.43
2018-02-21T00:38:01.107Z,27.70
2018-02-21T00:40:28.614Z,27.70
2018-02-21T00:42:56.078Z,26.43
2018-02-21T00:45:23.563Z,26.73
2018-02-21T00:47:51.041Z,25.50
2018-02-21T00:50:18.626Z,24.67
2018-02-21T00:52:46.109Z,28.77
2018-02-21T00:55:13.574Z,26.17
2018-02-21T00:57:41.055Z,26.03
2018-02-21T01:00:08.621Z,26.57
2018-02-21T01:02:36.099Z,29.33
2018-02-21T01:05:03.667Z,28.90
2018-02-21T01:07:31.185Z,28.50
2018-02-21T01:09:58.661Z,27.27
2018-02-21T01:12:26.146Z,28.13
2018-02-21T01:14:53.633Z,28.10
2018-02-21T01:17:21.129Z,30.90
2018-02-21T01:19:48.698Z,28.23
2018-02-21T01:22:16.197Z,27.73
2018-02-21T01:24:43.731Z,28.40
2018-02-21T01:27:11.311Z,27.07
2018-02-21T01:29:38.801Z,26.63
2018-02-21T01:32:06.360Z,28.87
2018-02-21T01:34:33.833Z,28.77
2018-02-21T01:37:01.396Z,27.10
2018-02-21T01:39:28.963Z,27.57
2018-02-21T01:41:56.556Z,29.07
2018-02-21T01:44:24.216Z,25.50
2018-02-21T01:46:51.795Z,27.70
2018-02-21T01:49:19.266Z,27.77
2018-02-21T01:51:46.744Z,28.57
2018-02-21T01:54:14.344Z,28.60
2018-02-21T01:56:41.879Z,28.57
2018-02-21T01:59:09.355Z,25.80
2018-02-21T02:01:36.842Z,28.73
2018-02-21T02:04:04.313Z,27.13
2018-02-21T02:06:31.802Z,28.77
2018-02-21T02:08:59.306Z,26.80
2018-02-21T02:11:26.791Z,27.90
2018-02-21T02:13:54.282Z,28.53
2018-02-21T02:16:21.777Z,27.53
2018-02-21T02:18:49.259Z,27.63
2018-02-21T02:21:16.789Z,28.50
2018-02-21T02:23:44.365Z,28.73
2018-02-21T02:26:11.943Z,29.87
2018-02-21T02:28:39.525Z,29.23
2018-02-21T02:31:07.088Z,28.90
2018-02-21T02:33:34.754Z,26.67
2018-02-21T02:36:02.225Z,26.37
2018-02-21T02:41:32.499Z,30.40
2018-02-21T02:44:00.161Z,29.73
2018-02-21T02:46:27.661Z,31.40
2018-02-21T02:48:55.133Z,27.10
2018-02-21T02:51:22.672Z,28.87
2018-02-21T02:53:50.144Z,29.67
2018-02-21T02:56:17.620Z,29.93
2018-02-21T02:58:45.096Z,28.20
2018-02-21T03:01:12.570Z,28.80
2018-02-21T03:03:40.072Z,29.10
2018-02-21T03:06:07.632Z,29.67
2018-02-21T03:08:35.098Z,28.40
2018-02-21T03:11:02.675Z,30.17
2018-02-21T03:13:30.143Z,29.63
2018-02-21T03:15:59.969Z,29.57
2018-02-21T03:18:27.514Z,30.03
2018-02-21T03:20:54.981Z,30.10
2018-02-21T03:23:22.490Z,28.47
2018-02-21T03:25:50.068Z,28.40
2018-02-21T03:28:17.617Z,25.40
2018-02-21T03:30:45.128Z,27.13
2018-02-21T03:33:12.667Z,27.40
2018-02-21T03:35:40.205Z,27.67
2018-02-21T03:38:07.729Z,29.03
2018-02-21T03:40:35.210Z,30.77
2018-02-21T03:43:02.717Z,29.07
2018-02-21T03:45:30.180Z,30.60
2018-02-21T03:47:57.650Z,29.20
2018-02-21T03:50:25.177Z,28.97
2018-02-21T03:52:52.653Z,31.30
2018-02-21T03:55:20.538Z,28.13
2018-02-21T03:57:48.043Z,32.67
2018-02-21T04:00:15.545Z,31.43
2018-02-21T04:02:43.059Z,30.03
2018-02-21T04:05:10.520Z,30.47
2018-02-21T04:07:38.998Z,33.53
2018-02-21T04:10:06.524Z,31.37
2018-02-21T04:12:34.081Z,32.60
2018-02-21T04:15:01.864Z,32.13
2018-02-21T04:17:29.365Z,33.83
2018-02-21T04:19:56.866Z,35.47
2018-02-21T04:22:24.383Z,35.27
2018-02-21T04:24:51.869Z,34.17
2018-02-21T04:27:19.490Z,35.70
2018-02-21T04:29:47.013Z,34.47
2018-02-21T04:32:14.585Z,35.37
2018-02-21T04:34:42.103Z,30.93
2018-02-21T04:37:09.569Z,36.77
2018-02-21T04:39:37.070Z,32.20
2018-02-21T04:42:04.608Z,34.83
2018-02-21T04:44:32.113Z,35.23
2018-02-21T04:46:59.688Z,35.23
2018-02-21T04:49:27.161Z,32.83
2018-02-21T04:51:54.690Z,35.63
2018-02-21T04:57:40.983Z,34.27
2018-02-21T05:00:09.838Z,38.33
2018-02-21T05:02:37.353Z,34.97
2018-02-21T05:05:04.819Z,35.00
2018-02-21T05:07:32.386Z,32.60
2018-02-21T05:09:59.893Z,34.47
2018-02-21T05:12:27.391Z,34.60
2018-02-21T05:14:55.002Z,36.47
2018-02-21T05:17:22.483Z,33.97
2018-02-21T05:19:49.983Z,35.30
2018-02-21T05:22:17.449Z,36.23
2018-02-21T05:24:44.962Z,32.03
2018-02-21T05:27:12.437Z,34.97
2018-02-21T05:29:39.931Z,36.07
2018-02-21T05:32:07.406Z,36.03
2018-02-21T05:34:34.877Z,35.07
2018-02-21T05:37:02.426Z,34.43
2018-02-21T05:39:29.917Z,35.33
2018-02-21T05:41:57.465Z,34.30
2018-02-21T05:44:25.342Z,35.70
2018-02-21T05:46:52.858Z,38.27
2018-02-21T05:49:20.342Z,39.57
2018-02-21T05:51:47.854Z,38.70
2018-02-21T05:54:15.427Z,40.80
2018-02-21T05:56:42.993Z,37.97
2018-02-21T05:59:10.480Z,35.80
2018-02-21T06:01:37.987Z,37.77
2018-02-21T06:04:05.464Z,37.67
2018-02-21T06:06:32.935Z,35.53
2018-02-21T06:09:00.439Z,42.73
2018-02-21T06:11:27.906Z,36.73
2018-02-21T06:13:55.380Z,35.67
2018-02-21T06:16:22.871Z,35.07
2018-02-21T06:18:50.364Z,38.47
2018-02-21T06:21:17.859Z,37.17
2018-02-21T06:23:45.429Z,38.63
2018-02-21T06:26:12.975Z,38.53
2018-02-21T06:28:40.501Z,39.30
2018-02-21T06:31:08.405Z,40.40
2018-02-21T06:33:35.879Z,40.90
2018-02-21T06:36:03.349Z,37.87
2018-02-21T06:38:30.868Z,43.70
2018-02-21T06:40:58.298Z,36.30
2018-02-21T06:43:25.847Z,39.37
2018-02-21T06:45:53.339Z,37.07
2018-02-21T06:48:20.853Z,34.07
2018-02-21T06:50:48.317Z,35.40
2018-02-21T06:53:15.800Z,32.83
2018-02-21T06:55:43.315Z,37.97
2018-02-21T06:58:10.848Z,36.80
2018-02-21T07:00:38.504Z,34.77
2018-02-21T07:03:05.976Z,34.27
2018-02-21T07:05:33.459Z,34.60
2018-02-21T07:08:01.125Z,35.17
2018-02-21T07:10:28.618Z,33.70
2018-02-21T07:12:56.125Z,33.67
2018-02-21T07:15:23.749Z,34.30
2018-02-21T07:17:51.208Z,36.17
2018-02-21T07:20:18.692Z,32.50
2018-02-21T07:22:46.154Z,32.23
2018-02-21T07:25:13.684Z,31.00
2018-02-21T07:27:41.166Z,36.23
2018-02-21T07:30:08.631Z,33.73
2018-02-21T07:32:36.110Z,34.60
2018-02-21T07:35:03.591Z,34.87
2018-02-21T07:37:31.067Z,34.47
2018-02-21T07:39:58.548Z,35.13
2018-02-21T07:42:26.136Z,33.43
2018-02-21T07:44:53.630Z,34.90
2018-02-21T07:47:21.140Z,35.50
2018-02-21T07:49:48.639Z,35.70
2018-02-21T07:52:16.130Z,36.20
2018-02-21T07:54:43.613Z,36.37
2018-02-21T07:57:11.099Z,36.67
2018-02-21T07:59:38.569Z,37.40
2018-02-21T08:02:06.062Z,38.63
2018-02-21T08:04:35.361Z,40.90
2018-02-21T08:07:02.833Z,41.07
2018-02-21T08:09:30.319Z,39.83
2018-02-21T08:11:57.877Z,40.23
2018-02-21T08:14:25.361Z,37.67
2018-02-21T08:16:53.114Z,38.87
2018-02-21T08:19:20.616Z,37.67
2018-02-21T08:21:48.119Z,41.53
2018-02-21T08:24:15.592Z,43.07
2018-02-21T08:26:43.105Z,37.93
2018-02-21T08:29:10.589Z,42.50
2018-02-21T08:31:38.078Z,40.87
2018-02-21T08:34:05.643Z,43.53
2018-02-21T08:36:33.152Z,42.23
2018-02-21T08:39:00.675Z,46.37
2018-02-21T08:41:28.145Z,43.43
2018-02-21T08:43:55.634Z,44.67
2018-02-21T08:46:23.115Z,42.30
2018-02-21T08:48:50.662Z,45.17
2018-02-21T08:51:18.229Z,44.67
2018-02-21T08:53:45.708Z,43.67
2018-02-21T08:56:13.270Z,42.97
2018-02-21T08:58:40.745Z,46.23
2018-02-21T09:01:08.355Z,43.17
2018-02-21T09:03:35.857Z,45.03
2018-02-21T09:06:03.355Z,43.70
2018-02-21T09:08:30.832Z,45.03
2018-02-21T09:10:58.335Z,42.63
2018-02-21T09:13:25.795Z,47.13
2018-02-21T09:15:53.354Z,47.47
2018-02-21T09:18:20.826Z,45.17
2018-02-21T09:20:48.389Z,45.00
2018-02-21T09:23:15.970Z,47.77
2018-02-21T09:25:43.539Z,46.90
2018-02-21T09:28:11.017Z,45.23
2018-02-21T09:30:38.986Z,41.27
2018-02-21T09:33:06.464Z,43.43
2018-02-21T09:35:33.930Z,43.83
2018-02-21T09:38:01.404Z,41.90
2018-02-21T09:40:28.966Z,43.00
2018-02-21T09:42:56.541Z,40.67
2018-02-21T09:45:24.126Z,43.13
2018-02-21T09:47:51.621Z,43.23
2018-02-21T09:50:19.178Z,39.63
2018-02-21T09:52:46.730Z,40.30
2018-02-21T09:55:14.247Z,41.00
2018-02-21T09:57:41.729Z,40.37
2018-02-21T10:00:09.198Z,39.33
2018-02-21T10:02:36.664Z,40.93
2018-02-21T10:05:04.190Z,42.03
2018-02-21T10:07:31.761Z,45.67
2018-02-21T10:09:59.246Z,43.53
2018-02-21T10:12:26.783Z,38.90
2018-02-21T10:14:54.268Z,39.23
2018-02-21T10:17:21.747Z,38.73
2018-02-21T10:19:49.257Z,34.50
2018-02-21T10:22:16.746Z,35.20
2018-02-21T10:24:44.264Z,38.07
2018-02-21T10:27:11.729Z,39.20
2018-02-21T10:29:39.310Z,39.40
2018-02-21T10:32:06.879Z,38.13
2018-02-21T10:34:34.360Z,38.83
2018-02-21T10:37:01.832Z,35.07
2018-02-21T10:39:29.325Z,36.63
2018-02-21T10:41:56.860Z,38.23
2018-02-21T10:44:24.327Z,35.53
2018-02-21T10:46:51.930Z,35.70
2018-02-21T10:49:19.446Z,33.70
2018-02-21T10:51:46.933Z,34.50
2018-02-21T10:54:14.423Z,35.87
2018-02-21T10:56:42.316Z,31.93
2018-02-21T10:59:09.782Z,33.87
2018-02-21T11:01:37.962Z,30.80
2018-02-21T11:04:05.453Z,25.47
2018-02-21T11:06:32.916Z,25.40
2018-02-21T11:09:00.418Z,26.87
2018-02-21T11:11:27.892Z,26.43
2018-02-21T11:13:55.368Z,29.03
2018-02-21T11:16:22.831Z,25.13
2018-02-21T11:18:50.317Z,24.97
2018-02-21T11:21:17.787Z,25.23
2018-02-21T11:23:45.348Z,23.60
2018-02-21T11:26:12.873Z,23.63
2018-02-21T11:28:40.368Z,23.27
2018-02-21T11:31:07.838Z,24.67
2018-02-21T11:33:35.327Z,21.77
2018-02-21T11:36:02.815Z,24.70
2018-02-21T11:38:30.283Z,24.37
2018-02-21T11:40:57.817Z,20.90
2018-02-21T11:43:25.374Z,21.73
2018-02-21T11:45:52.851Z,21.53
2018-02-21T11:48:20.349Z,21.73
2018-02-21T11:50:47.838Z,19.57
2018-02-21T11:53:15.316Z,21.10
2018-02-21T11:55:42.833Z,18.57
2018-02-21T11:58:10.393Z,19.70
2018-02-21T12:00:37.852Z,19.40
2018-02-21T12:03:05.335Z,21.27
2018-02-21T12:05:32.805Z,19.07
2018-02-21T12:08:00.291Z,20.07
2018-02-21T12:10:27.838Z,18.50
2018-02-21T12:12:55.429Z,20.37
2018-02-21T12:15:22.895Z,19.57
2018-02-21T12:17:50.369Z,19.33
2018-02-21T12:20:17.835Z,19.87
2018-02-21T12:22:45.313Z,21.23
2018-02-21T12:25:12.771Z,17.63
2018-02-21T12:27:40.245Z,22.50
2018-02-21T12:30:07.738Z,19.20
2018-02-21T12:32:36.174Z,20.13
2018-02-21T12:35:03.639Z,17.97
2018-02-21T12:37:31.218Z,21.00
2018-02-21T12:39:59.513Z,19.40
2018-02-21T12:42:27.016Z,18.63
2018-02-21T12:44:54.494Z,18.77
2018-02-21T12:47:22.024Z,18.53
2018-02-21T12:49:49.531Z,18.57
2018-02-21T12:52:17.008Z,17.90
2018-02-21T12:54:44.520Z,17.87
2018-02-21T12:57:12.014Z,17.17
2018-02-21T12:59:39.542Z,16.50
2018-02-21T13:02:07.022Z,17.83
2018-02-21T13:04:34.481Z,18.40
2018-02-21T13:07:01.969Z,19.67
2018-02-21T13:09:29.433Z,17.80
2018-02-21T13:11:56.910Z,19.47
2018-02-21T13:14:24.386Z,17.60
2018-02-21T13:16:51.890Z,18.63
2018-02-21T13:19:19.388Z,19.87
2018-02-21T13:21:46.869Z,19.17
2018-02-21T13:24:14.336Z,20.00
2018-02-21T13:26:41.818Z,21.07
2018-02-21T13:29:09.375Z,21.43
2018-02-21T13:31:37.366Z,21.60
2018-02-21T13:34:04.833Z,21.50
2018-02-21T13:36:32.395Z,20.70
2018-02-21T13:38:59.968Z,19.60
2018-02-21T13:41:27.552Z,18.07
2018-02-21T13:43:55.039Z,17.50
2018-02-21T13:46:22.625Z,18.10
2018-02-21T13:48:50.196Z,17.43
2018-02-21T13:51:17.696Z,19.97
2018-02-21T13:53:45.207Z,16.47
2018-02-21T13:56:12.666Z,18.63
2018-02-21T13:58:40.147Z,19.83
2018-02-21T14:01:07.715Z,18.63
2018-02-21T14:03:35.286Z,17.60
2018-02-21T14:06:02.861Z,17.30
2018-02-21T14:08:30.330Z,18.20
2018-02-21T14:10:57.805Z,19.23
2018-02-21T14:13:25.273Z,17.87
2018-02-21T14:15:52.844Z,17.87
2018-02-21T14:18:20.515Z,18.43
2018-02-21T14:20:48.045Z,17.27
2018-02-21T14:23:15.523Z,17.50
2018-02-21T14:25:43.037Z,14.90
2018-02-21T14:28:10.529Z,14.93
2018-02-21T14:30:38.086Z,13.33
2018-02-21T14:33:05.555Z,15.53
2018-02-21T14:35:33.032Z,14.57
2018-02-21T14:38:00.592Z,12.70
2018-02-21T14:40:28.155Z,12.20
2018-02-21T14:42:55.634Z,13.60
2018-02-21T14:45:23.098Z,14.50
2018-02-21T14:47:50.589Z,12.37
2018-02-21T14:50:18.110Z,12.47
2018-02-21T14:52:45.626Z,12.03
2018-02-21T14:55:13.095Z,13.13
2018-02-21T14:57:40.572Z,13.87
2018-02-21T15:00:08.650Z,14.37
2018-02-21T15:02:36.118Z,13.23
2018-02-21T15:05:03.706Z,13.33
2018-02-21T15:07:31.177Z,13.57
2018-02-21T15:09:58.656Z,13.67
2018-02-21T15:12:26.182Z,14.40
2018-02-21T15:14:53.728Z,13.53
2018-02-21T15:17:21.206Z,14.33
2018-02-21T15:19:48.678Z,13.47
2018-02-21T15:22:16.192Z,11.93
2018-02-21T15:24:43.668Z,12.43
2018-02-21T15:27:11.243Z,11.23
2018-02-21T15:29:38.723Z,12.07
2018-02-21T15:32:06.251Z,10.53
2018-02-21T15:34:33.719Z,11.63
2018-02-21T15:37:01.194Z,11.67
2018-02-21T15:39:28.675Z,11.07
2018-02-21T15:41:56.187Z,9.73
2018-02-21T15:44:23.659Z,8.83
2018-02-21T15:46:51.157Z,9.30
2018-02-21T15:49:18.641Z,9.23
2018-02-21T15:51:46.122Z,9.20
2018-02-21T15:54:13.725Z,10.07
2018-02-21T15:56:41.201Z,9.17
2018-02-21T15:59:08.667Z,8.87
2018-02-21T16:01:37.101Z,9.30
2018-02-21T16:04:04.598Z,8.37
2018-02-21T16:06:32.062Z,9.03
2018-02-21T16:08:59.533Z,10.13
2018-02-21T16:11:27.014Z,10.77
2018-02-21T16:13:54.472Z,10.17
2018-02-21T16:16:21.996Z,9.13
2018-02-21T16:18:49.496Z,10.53
2018-02-21T16:21:16.977Z,9.93
2018-02-21T16:23:44.493Z,10.30
2018-02-21T16:26:12.017Z,10.10
2018-02-21T16:28:39.497Z,11.13
2018-02-21T16:31:07.010Z,11.00
2018-02-21T16:33:34.584Z,11.53
2018-02-21T16:36:02.160Z,10.33
2018-02-21T16:38:29.621Z,10.03
2018-02-21T16:40:57.206Z,10.80
2018-02-21T16:43:24.675Z,11.27
2018-02-21T16:45:52.238Z,10.67
2018-02-21T16:48:19.715Z,11.53
2018-02-21T16:50:47.277Z,11.17
2018-02-21T16:53:14.777Z,10.93
2018-02-21T16:55:42.332Z,11.53
2018-02-21T16:58:09.859Z,12.17
2018-02-21T17:00:37.394Z,12.50
2018-02-21T17:03:04.873Z,11.30
2018-02-21T17:05:32.330Z,10.73
2018-02-21T17:07:59.898Z,13.33
2018-02-21T17:10:27.371Z,11.87
2018-02-21T17:12:54.859Z,12.70
2018-02-21T17:15:22.531Z,13.93
2018-02-21T17:17:50.281Z,12.40
2018-02-21T17:20:17.958Z,11.93
2018-02-21T17:22:45.431Z,14.43
2018-02-21T17:25:12.913Z,12.03
2018-02-21T17:27:40.412Z,14.50
2018-02-21T17:30:07.890Z,11.90
2018-02-21T17:32:35.380Z,13.67
2018-02-21T17:35:02.887Z,12.87
2018-02-21T17:37:30.461Z,13.70
2018-02-21T17:39:57.975Z,12.90
2018-02-21T17:42:25.511Z,13.23
2018-02-21T17:44:53.009Z,13.87
2018-02-21T17:47:20.496Z,15.77
2018-02-21T17:49:48.014Z,15.50
2018-02-21T17:52:15.570Z,15.53
2018-02-21T17:54:43.053Z,14.50
2018-02-21T17:57:10.617Z,14.90
2018-02-21T17:59:38.092Z,16.57
2018-02-21T18:02:05.568Z,18.17
2018-02-21T18:04:33.162Z,16.33
2018-02-21T18:07:00.628Z,17.30
2018-02-21T18:09:28.192Z,15.70
2018-02-21T18:11:56.094Z,17.83
2018-02-21T18:14:23.748Z,15.20
2018-02-21T18:16:51.240Z,17.00
2018-02-21T18:19:18.724Z,15.33
2018-02-21T18:21:50.188Z,16.23
2018-02-21T18:24:17.661Z,15.43
2018-02-21T18:26:45.198Z,18.17
2018-02-21T18:29:12.767Z,17.50
2018-02-21T18:31:40.256Z,15.50
2018-02-21T18:34:07.867Z,15.47
2018-02-21T18:36:35.341Z,15.83
2018-02-21T18:39:02.811Z,16.33
2018-02-21T18:41:30.304Z,16.20
2018-02-21T18:43:57.772Z,15.60
2018-02-21T18:46:25.274Z,17.23
2018-02-21T18:48:52.764Z,15.90
2018-02-21T18:51:20.241Z,15.70
2018-02-21T18:53:47.718Z,16.53
2018-02-21T18:56:15.249Z,16.83
2018-02-21T18:58:42.764Z,17.17
2018-02-21T19:01:10.240Z,19.63
2018-02-21T19:03:37.810Z,19.80
2018-02-21T19:06:05.297Z,18.77
2018-02-21T19:08:32.816Z,19.13
2018-02-21T19:11:00.289Z,18.57
2018-02-21T19:13:27.813Z,19.33
2018-02-21T19:15:55.534Z,18.27
2018-02-21T19:18:23.130Z,18.30
2018-02-21T19:20:50.658Z,20.37
2018-02-21T19:23:18.165Z,21.93
2018-02-21T19:25:45.638Z,20.83
2018-02-21T19:28:13.124Z,18.77
2018-02-21T19:30:40.602Z,18.47
2018-02-21T19:33:08.137Z,18.33
2018-02-21T19:35:35.712Z,18.60
2018-02-21T19:38:03.271Z,17.13
2018-02-21T19:40:30.761Z,17.03
2018-02-21T19:42:58.233Z,15.50
2018-02-21T19:45:25.814Z,16.53
2018-02-21T19:47:53.396Z,16.77
2018-02-21T19:50:20.895Z,17.97
2018-02-21T19:52:48.403Z,17.77
2018-02-21T19:55:15.885Z,15.93
2018-02-21T19:57:43.528Z,17.30
2018-02-21T20:00:11.003Z,17.80
2018-02-21T20:02:38.475Z,15.93
2018-02-21T20:05:05.955Z,15.07
2018-02-21T20:07:33.834Z,15.63
2018-02-21T20:10:01.305Z,16.40
2018-02-21T20:12:28.787Z,17.00
2018-02-21T20:14:56.262Z,17.07
2018-02-21T20:17:23.740Z,15.57
2018-02-21T20:19:51.308Z,15.93
2018-02-21T20:22:18.800Z,15.97
2018-02-21T20:24:46.369Z,16.77
2018-02-21T20:27:13.869Z,17.77
2018-02-21T20:29:41.356Z,16.50
2018-02-21T20:32:08.891Z,19.97
2018-02-21T20:34:36.425Z,16.73
2018-02-21T20:37:03.899Z,15.80
2018-02-21T20:39:31.392Z,19.20
2018-02-21T20:41:58.874Z,17.83
2018-02-21T20:44:26.360Z,18.87
2018-02-21T20:46:53.842Z,16.10
2018-02-21T20:49:21.603Z,18.93
2018-02-21T20:51:49.057Z,17.20
2018-02-21T20:54:16.528Z,17.60
2018-02-21T20:56:44.060Z,18.13
2018-02-21T20:59:11.526Z,17.70
2018-02-21T21:01:39.006Z,18.47
2018-02-21T21:04:06.482Z,16.60
2018-02-21T21:06:33.960Z,17.43
2018-02-21T21:09:01.426Z,19.60
2018-02-21T21:11:28.910Z,17.80
2018-02-21T21:13:56.385Z,18.23
2018-02-21T21:16:23.894Z,17.63
2018-02-21T21:18:52.247Z,17.93
2018-02-21T21:21:19.737Z,17.73
2018-02-21T21:23:47.215Z,17.10
2018-02-21T21:26:14.695Z,16.00
2018-02-21T21:28:42.176Z,17.30
2018-02-21T21:31:09.849Z,16.07
2018-02-21T21:33:37.379Z,17.17
2018-02-21T21:36:04.967Z,18.10
2018-02-21T21:38:32.595Z,17.43
2018-02-21T21:41:00.171Z,17.67
2018-02-21T21:43:27.756Z,18.60
2018-02-21T21:45:55.226Z,16.27
2018-02-21T21:48:22.897Z,18.13
2018-02-21T21:50:50.462Z,17.70
2018-02-21T21:53:17.927Z,16.67
2018-02-21T21:55:45.400Z,15.83
2018-02-21T21:58:12.853Z,19.03
2018-02-21T22:00:40.397Z,17.77
2018-02-21T22:03:07.865Z,17.73
2018-02-21T22:05:35.332Z,16.30
2018-02-21T22:08:02.807Z,17.10
2018-02-21T22:10:30.273Z,17.37
2018-02-21T22:12:57.748Z,16.80
2018-02-21T22:15:25.287Z,17.33
2018-02-21T22:17:52.770Z,17.13
2018-02-21T22:20:20.264Z,16.97
2018-02-21T22:22:47.744Z,17.63
2018-02-21T22:25:15.219Z,17.53
2018-02-21T22:27:42.677Z,17.80
2018-02-21T22:30:10.204Z,17.87
2018-02-21T22:32:37.772Z,19.47
2018-02-21T22:35:07.076Z,19.83
2018-02-21T22:37:34.545Z,17.67
2018-02-21T22:40:02.025Z,16.23
2018-02-21T22:42:29.494Z,16.63
2018-02-21T22:44:57.043Z,18.93
2018-02-21T22:47:24.528Z,18.93
2018-02-21T22:49:52.013Z,18.03
2018-02-21T22:52:19.493Z,19.00
2018-02-21T22:54:46.953Z,17.73
2018-02-21T22:57:14.433Z,18.93
2018-02-21T22:59:41.988Z,18.07
2018-02-21T23:02:09.466Z,19.00
2018-02-21T23:04:36.926Z,18.90
2018-02-21T23:07:04.428Z,18.83
2018-02-21T23:09:31.982Z,17.97
2018-02-21T23:11:59.695Z,18.50
2018-02-21T23:14:27.229Z,20.47
2018-02-21T23:16:54.694Z,18.87
2018-02-21T23:19:22.189Z,18.23
2018-02-21T23:21:49.658Z,19.60
2018-02-21T23:24:17.183Z,19.87
2018-02-21T23:26:44.682Z,19.30
2018-02-21T23:29:12.246Z,19.00
2018-02-21T23:31:39.746Z,18.43
2018-02-21T23:34:07.201Z,17.77
2018-02-21T23:36:34.669Z,18.90
2018-02-21T23:39:02.337Z,19.00
2018-02-21T23:41:29.921Z,18.97
2018-02-21T23:43:57.473Z,17.80
2018-02-21T23:46:24.973Z,19.27
2018-02-21T23:48:52.538Z,19.17
2018-02-21T23:51:20.146Z,18.73
2018-02-21T23:53:47.660Z,19.60
2018-02-21T23:56:15.186Z,17.43
2018-02-21T23:58:42.659Z,19.20
